sensor_id;sensor_type;location;lat;lon;timestamp;P1;durP1;ratioP1;P2;durP2;ratioP2
70270;SDS011;57680;54.292;18.598;2023-05-08T00:01:48;11.27;;;4.10;;
70270;SDS011;57680;54.292;18.598;2023-05-08T00:04:14;9.77;;;4.10;;
70270;SDS011;57680;54.292;18.598;2023-05-08T00:06:40;16.97;;;5.17;;
70270;SDS011;57680;54.292;18.598;2023-05-08T00:09:05;12.90;;;4.47;;
70270;SDS011;57680;54.292;18.598;2023-05-08T00:11:31;12.73;;;4.57;;
70270;SDS011;57680;54.292;18.598;2023-05-08T00:13:56;10.50;;;4.10;;
70270;SDS011;57680;54.292;18.598;2023-05-08T00:16:22;11.50;;;4.30;;
70270;SDS011;57680;54.292;18.598;2023-05-08T00:18:47;12.13;;;4.40;;
70270;SDS011;57680;54.292;18.598;2023-05-08T00:21:13;14.00;;;4.38;;
70270;SDS011;57680;54.292;18.598;2023-05-08T00:23:38;10.57;;;4.37;;
70270;SDS011;57680;54.292;18.598;2023-05-08T00:26:06;12.80;;;4.10;;
70270;SDS011;57680;54.292;18.598;2023-05-08T00:28:31;12.63;;;4.07;;
70270;SDS011;57680;54.292;18.598;2023-05-08T00:30:58;12.10;;;4.50;;
70270;SDS011;57680;54.292;18.598;2023-05-08T00:33:24;10.63;;;4.00;;
70270;SDS011;57680;54.292;18.598;2023-05-08T00:35:50;15.23;;;4.30;;
70270;SDS011;57680;54.292;18.598;2023-05-08T00:38:15;11.17;;;4.07;;
70270;SDS011;57680;54.292;18.598;2023-05-08T00:40:41;11.15;;;4.25;;
70270;SDS011;57680;54.292;18.598;2023-05-08T00:43:06;11.23;;;4.03;;
70270;SDS011;57680;54.292;18.598;2023-05-08T00:45:32;13.03;;;5.17;;
70270;SDS011;57680;54.292;18.598;2023-05-08T00:48:00;12.05;;;4.20;;
70270;SDS011;57680;54.292;18.598;2023-05-08T00:50:26;9.73;;;4.15;;
70270;SDS011;57680;54.292;18.598;2023-05-08T00:52:51;11.37;;;4.17;;
70270;SDS011;57680;54.292;18.598;2023-05-08T00:55:18;10.35;;;4.55;;
70270;SDS011;57680;54.292;18.598;2023-05-08T00:57:43;12.83;;;4.73;;
70270;SDS011;57680;54.292;18.598;2023-05-08T01:00:11;11.93;;;4.45;;
70270;SDS011;57680;54.292;18.598;2023-05-08T01:02:37;10.32;;;4.20;;
70270;SDS011;57680;54.292;18.598;2023-05-08T01:05:04;10.80;;;4.20;;
70270;SDS011;57680;54.292;18.598;2023-05-08T01:07:30;10.70;;;4.57;;
70270;SDS011;57680;54.292;18.598;2023-05-08T01:09:56;12.18;;;4.70;;
70270;SDS011;57680;54.292;18.598;2023-05-08T01:12:29;13.47;;;4.93;;
70270;SDS011;57680;54.292;18.598;2023-05-08T01:15:13;10.70;;;4.50;;
70270;SDS011;57680;54.292;18.598;2023-05-08T01:29:21;12.55;;;5.22;;
70270;SDS011;57680;54.292;18.598;2023-05-08T01:32:19;11.73;;;4.90;;
70270;SDS011;57680;54.292;18.598;2023-05-08T01:34:50;11.70;;;4.55;;
70270;SDS011;57680;54.292;18.598;2023-05-08T01:37:36;14.25;;;5.13;;
70270;SDS011;57680;54.292;18.598;2023-05-08T01:40:11;13.83;;;4.90;;
70270;SDS011;57680;54.292;18.598;2023-05-08T01:43:13;12.07;;;4.93;;
70270;SDS011;57680;54.292;18.598;2023-05-08T01:45:48;10.95;;;5.00;;
70270;SDS011;57680;54.292;18.598;2023-05-08T01:48:29;11.65;;;5.05;;
70270;SDS011;57680;54.292;18.598;2023-05-08T01:50:59;11.38;;;4.78;;
70270;SDS011;57680;54.292;18.598;2023-05-08T01:53:29;13.53;;;4.93;;
70270;SDS011;57680;54.292;18.598;2023-05-08T01:55:59;12.52;;;5.10;;
70270;SDS011;57680;54.292;18.598;2023-05-08T01:58:27;11.55;;;5.00;;
70270;SDS011;57680;54.292;18.598;2023-05-08T02:00:55;12.60;;;5.32;;
70270;SDS011;57680;54.292;18.598;2023-05-08T02:03:23;13.68;;;5.47;;
70270;SDS011;57680;54.292;18.598;2023-05-08T02:05:49;13.87;;;6.37;;
70270;SDS011;57680;54.292;18.598;2023-05-08T02:08:16;13.27;;;5.88;;
70270;SDS011;57680;54.292;18.598;2023-05-08T02:10:45;16.60;;;6.00;;
70270;SDS011;57680;54.292;18.598;2023-05-08T02:13:13;14.50;;;5.20;;
70270;SDS011;57680;54.292;18.598;2023-05-08T02:15:40;13.32;;;5.75;;
70270;SDS011;57680;54.292;18.598;2023-05-08T02:18:07;13.80;;;5.80;;
70270;SDS011;57680;54.292;18.598;2023-05-08T02:20:33;17.60;;;6.05;;
70270;SDS011;57680;54.292;18.598;2023-05-08T02:22:58;14.98;;;5.82;;
70270;SDS011;57680;54.292;18.598;2023-05-08T02:25:25;16.10;;;6.73;;
70270;SDS011;57680;54.292;18.598;2023-05-08T02:27:53;16.85;;;5.90;;
70270;SDS011;57680;54.292;18.598;2023-05-08T02:30:20;18.08;;;6.35;;
70270;SDS011;57680;54.292;18.598;2023-05-08T02:32:49;16.27;;;6.32;;
70270;SDS011;57680;54.292;18.598;2023-05-08T02:35:17;16.95;;;5.95;;
70270;SDS011;57680;54.292;18.598;2023-05-08T02:37:44;14.37;;;5.80;;
70270;SDS011;57680;54.292;18.598;2023-05-08T02:40:13;13.75;;;6.10;;
70270;SDS011;57680;54.292;18.598;2023-05-08T02:42:41;14.75;;;6.05;;
70270;SDS011;57680;54.292;18.598;2023-05-08T02:45:07;16.20;;;6.47;;
70270;SDS011;57680;54.292;18.598;2023-05-08T02:47:37;15.07;;;5.95;;
70270;SDS011;57680;54.292;18.598;2023-05-08T02:52:37;16.38;;;6.22;;
70270;SDS011;57680;54.292;18.598;2023-05-08T02:55:20;14.85;;;6.20;;
70270;SDS011;57680;54.292;18.598;2023-05-08T03:00:26;15.38;;;5.97;;
70270;SDS011;57680;54.292;18.598;2023-05-08T03:02:56;16.07;;;6.40;;
70270;SDS011;57680;54.292;18.598;2023-05-08T03:05:28;19.70;;;6.45;;
70270;SDS011;57680;54.292;18.598;2023-05-08T03:07:56;16.23;;;5.88;;
70270;SDS011;57680;54.292;18.598;2023-05-08T03:10:27;16.15;;;6.32;;
70270;SDS011;57680;54.292;18.598;2023-05-08T03:12:57;16.05;;;6.70;;
70270;SDS011;57680;54.292;18.598;2023-05-08T03:15:27;14.70;;;6.17;;
70270;SDS011;57680;54.292;18.598;2023-05-08T03:18:01;14.27;;;6.50;;
70270;SDS011;57680;54.292;18.598;2023-05-08T03:20:31;16.50;;;6.38;;
70270;SDS011;57680;54.292;18.598;2023-05-08T03:23:01;16.35;;;6.20;;
70270;SDS011;57680;54.292;18.598;2023-05-08T03:25:28;16.02;;;6.20;;
70270;SDS011;57680;54.292;18.598;2023-05-08T03:27:54;13.10;;;6.10;;
70270;SDS011;57680;54.292;18.598;2023-05-08T03:30:21;14.85;;;5.90;;
70270;SDS011;57680;54.292;18.598;2023-05-08T03:32:47;14.85;;;6.10;;
70270;SDS011;57680;54.292;18.598;2023-05-08T03:35:14;14.45;;;6.38;;
70270;SDS011;57680;54.292;18.598;2023-05-08T03:37:40;12.55;;;5.82;;
70270;SDS011;57680;54.292;18.598;2023-05-08T03:40:06;14.67;;;6.40;;
70270;SDS011;57680;54.292;18.598;2023-05-08T03:42:33;14.68;;;5.78;;
70270;SDS011;57680;54.292;18.598;2023-05-08T03:44:59;15.52;;;5.88;;
70270;SDS011;57680;54.292;18.598;2023-05-08T03:47:27;13.77;;;6.30;;
70270;SDS011;57680;54.292;18.598;2023-05-08T03:49:53;14.18;;;6.10;;
70270;SDS011;57680;54.292;18.598;2023-05-08T03:52:19;14.03;;;6.17;;
70270;SDS011;57680;54.292;18.598;2023-05-08T03:54:44;13.25;;;6.28;;
70270;SDS011;57680;54.292;18.598;2023-05-08T03:57:10;14.50;;;6.13;;
70270;SDS011;57680;54.292;18.598;2023-05-08T04:02:46;17.92;;;7.00;;
70270;SDS011;57680;54.292;18.598;2023-05-08T04:05:36;25.73;;;8.95;;
70270;SDS011;57680;54.292;18.598;2023-05-08T04:10:49;19.40;;;7.53;;
70270;SDS011;57680;54.292;18.598;2023-05-08T04:13:21;17.47;;;7.00;;
70270;SDS011;57680;54.292;18.598;2023-05-08T04:16:04;20.30;;;7.35;;
70270;SDS011;57680;54.292;18.598;2023-05-08T04:18:35;15.70;;;6.57;;
70270;SDS011;57680;54.292;18.598;2023-05-08T04:21:01;19.23;;;7.22;;
70270;SDS011;57680;54.292;18.598;2023-05-08T04:23:31;20.20;;;7.25;;
70270;SDS011;57680;54.292;18.598;2023-05-08T04:25:59;15.67;;;7.47;;
70270;SDS011;57680;54.292;18.598;2023-05-08T04:28:26;18.30;;;7.65;;
70270;SDS011;57680;54.292;18.598;2023-05-08T04:30:52;21.58;;;7.22;;
70270;SDS011;57680;54.292;18.598;2023-05-08T04:33:19;19.95;;;6.80;;
70270;SDS011;57680;54.292;18.598;2023-05-08T04:35:44;20.30;;;7.40;;
70270;SDS011;57680;54.292;18.598;2023-05-08T04:38:10;27.83;;;8.00;;
70270;SDS011;57680;54.292;18.598;2023-05-08T04:40:35;29.87;;;9.03;;
70270;SDS011;57680;54.292;18.598;2023-05-08T04:43:00;25.73;;;8.93;;
70270;SDS011;57680;54.292;18.598;2023-05-08T04:45:26;21.70;;;8.15;;
70270;SDS011;57680;54.292;18.598;2023-05-08T04:47:51;25.90;;;8.70;;
70270;SDS011;57680;54.292;18.598;2023-05-08T04:50:17;30.93;;;8.23;;
70270;SDS011;57680;54.292;18.598;2023-05-08T04:52:42;22.23;;;9.03;;
70270;SDS011;57680;54.292;18.598;2023-05-08T04:55:07;22.87;;;9.27;;
70270;SDS011;57680;54.292;18.598;2023-05-08T04:57:33;18.50;;;8.30;;
70270;SDS011;57680;54.292;18.598;2023-05-08T04:59:59;18.70;;;8.43;;
70270;SDS011;57680;54.292;18.598;2023-05-08T05:02:25;16.33;;;7.87;;
70270;SDS011;57680;54.292;18.598;2023-05-08T05:04:50;21.97;;;7.87;;
70270;SDS011;57680;54.292;18.598;2023-05-08T05:07:15;21.47;;;7.73;;
70270;SDS011;57680;54.292;18.598;2023-05-08T05:09:41;23.20;;;7.13;;
70270;SDS011;57680;54.292;18.598;2023-05-08T05:12:06;22.43;;;6.70;;
70270;SDS011;57680;54.292;18.598;2023-05-08T05:14:31;17.40;;;6.13;;
70270;SDS011;57680;54.292;18.598;2023-05-08T05:16:57;17.33;;;6.60;;
70270;SDS011;57680;54.292;18.598;2023-05-08T05:19:23;19.50;;;6.95;;
70270;SDS011;57680;54.292;18.598;2023-05-08T05:21:48;13.67;;;6.10;;
70270;SDS011;57680;54.292;18.598;2023-05-08T05:24:14;16.37;;;6.27;;
70270;SDS011;57680;54.292;18.598;2023-05-08T05:26:39;15.40;;;5.82;;
70270;SDS011;57680;54.292;18.598;2023-05-08T05:29:05;19.37;;;6.20;;
70270;SDS011;57680;54.292;18.598;2023-05-08T05:31:30;21.00;;;6.70;;
70270;SDS011;57680;54.292;18.598;2023-05-08T05:33:56;19.47;;;6.70;;
70270;SDS011;57680;54.292;18.598;2023-05-08T05:36:21;19.35;;;6.47;;
70270;SDS011;57680;54.292;18.598;2023-05-08T05:38:47;18.53;;;6.50;;
70270;SDS011;57680;54.292;18.598;2023-05-08T05:41:12;15.37;;;6.20;;
70270;SDS011;57680;54.292;18.598;2023-05-08T05:43:37;19.30;;;6.27;;
70270;SDS011;57680;54.292;18.598;2023-05-08T05:46:06;15.38;;;5.97;;
70270;SDS011;57680;54.292;18.598;2023-05-08T05:48:32;18.15;;;6.10;;
70270;SDS011;57680;54.292;18.598;2023-05-08T05:50:58;22.00;;;7.00;;
70270;SDS011;57680;54.292;18.598;2023-05-08T05:53:23;16.67;;;6.07;;
70270;SDS011;57680;54.292;18.598;2023-05-08T05:55:49;16.33;;;6.35;;
70270;SDS011;57680;54.292;18.598;2023-05-08T05:58:14;18.80;;;6.20;;
70270;SDS011;57680;54.292;18.598;2023-05-08T06:00:40;17.03;;;6.50;;
70270;SDS011;57680;54.292;18.598;2023-05-08T06:03:05;17.03;;;6.23;;
70270;SDS011;57680;54.292;18.598;2023-05-08T06:05:30;14.70;;;6.37;;
70270;SDS011;57680;54.292;18.598;2023-05-08T06:07:56;15.97;;;6.27;;
70270;SDS011;57680;54.292;18.598;2023-05-08T06:10:21;13.30;;;5.82;;
70270;SDS011;57680;54.292;18.598;2023-05-08T06:12:46;14.10;;;5.93;;
70270;SDS011;57680;54.292;18.598;2023-05-08T06:15:12;13.43;;;5.80;;
70270;SDS011;57680;54.292;18.598;2023-05-08T06:17:37;16.93;;;6.47;;
70270;SDS011;57680;54.292;18.598;2023-05-08T06:20:03;13.70;;;6.30;;
70270;SDS011;57680;54.292;18.598;2023-05-08T06:22:29;15.03;;;6.00;;
70270;SDS011;57680;54.292;18.598;2023-05-08T06:24:54;13.37;;;6.00;;
70270;SDS011;57680;54.292;18.598;2023-05-08T06:27:20;17.13;;;5.80;;
70270;SDS011;57680;54.292;18.598;2023-05-08T06:29:46;21.80;;;6.07;;
70270;SDS011;57680;54.292;18.598;2023-05-08T06:32:12;16.55;;;5.93;;
70270;SDS011;57680;54.292;18.598;2023-05-08T06:34:37;13.23;;;5.57;;
70270;SDS011;57680;54.292;18.598;2023-05-08T06:37:03;18.40;;;5.60;;
70270;SDS011;57680;54.292;18.598;2023-05-08T06:39:28;18.55;;;5.13;;
70270;SDS011;57680;54.292;18.598;2023-05-08T06:41:53;18.73;;;5.30;;
70270;SDS011;57680;54.292;18.598;2023-05-08T06:44:19;14.13;;;5.17;;
70270;SDS011;57680;54.292;18.598;2023-05-08T06:46:44;12.53;;;5.07;;
70270;SDS011;57680;54.292;18.598;2023-05-08T06:49:09;15.77;;;5.67;;
70270;SDS011;57680;54.292;18.598;2023-05-08T06:51:35;17.07;;;5.67;;
70270;SDS011;57680;54.292;18.598;2023-05-08T06:54:00;14.50;;;5.72;;
70270;SDS011;57680;54.292;18.598;2023-05-08T06:56:26;14.43;;;5.20;;
70270;SDS011;57680;54.292;18.598;2023-05-08T06:58:52;13.20;;;5.40;;
70270;SDS011;57680;54.292;18.598;2023-05-08T07:01:17;18.73;;;5.47;;
70270;SDS011;57680;54.292;18.598;2023-05-08T07:03:42;13.43;;;5.60;;
70270;SDS011;57680;54.292;18.598;2023-05-08T07:06:07;11.60;;;5.53;;
70270;SDS011;57680;54.292;18.598;2023-05-08T07:08:33;11.37;;;5.63;;
70270;SDS011;57680;54.292;18.598;2023-05-08T07:10:58;12.87;;;5.50;;
70270;SDS011;57680;54.292;18.598;2023-05-08T07:13:24;12.17;;;5.50;;
70270;SDS011;57680;54.292;18.598;2023-05-08T07:15:49;10.63;;;5.50;;
70270;SDS011;57680;54.292;18.598;2023-05-08T07:18:15;10.90;;;4.77;;
70270;SDS011;57680;54.292;18.598;2023-05-08T07:20:40;11.95;;;4.90;;
70270;SDS011;57680;54.292;18.598;2023-05-08T07:23:06;9.73;;;4.53;;
70270;SDS011;57680;54.292;18.598;2023-05-08T07:25:31;10.57;;;4.83;;
70270;SDS011;57680;54.292;18.598;2023-05-08T07:27:57;12.27;;;5.03;;
70270;SDS011;57680;54.292;18.598;2023-05-08T07:30:22;11.80;;;4.80;;
70270;SDS011;57680;54.292;18.598;2023-05-08T07:32:48;12.60;;;5.43;;
70270;SDS011;57680;54.292;18.598;2023-05-08T07:35:13;11.23;;;6.23;;
70270;SDS011;57680;54.292;18.598;2023-05-08T07:37:39;11.48;;;5.15;;
70270;SDS011;57680;54.292;18.598;2023-05-08T07:40:04;12.43;;;5.00;;
70270;SDS011;57680;54.292;18.598;2023-05-08T07:42:30;10.60;;;5.10;;
70270;SDS011;57680;54.292;18.598;2023-05-08T07:44:55;11.90;;;4.30;;
70270;SDS011;57680;54.292;18.598;2023-05-08T07:47:21;10.60;;;4.53;;
70270;SDS011;57680;54.292;18.598;2023-05-08T07:49:46;11.27;;;4.50;;
70270;SDS011;57680;54.292;18.598;2023-05-08T07:52:11;9.43;;;4.43;;
70270;SDS011;57680;54.292;18.598;2023-05-08T07:54:37;11.50;;;4.93;;
70270;SDS011;57680;54.292;18.598;2023-05-08T07:57:02;9.53;;;4.77;;
70270;SDS011;57680;54.292;18.598;2023-05-08T07:59:28;9.47;;;4.60;;
70270;SDS011;57680;54.292;18.598;2023-05-08T08:01:53;11.13;;;5.77;;
70270;SDS011;57680;54.292;18.598;2023-05-08T08:04:18;11.07;;;5.13;;
70270;SDS011;57680;54.292;18.598;2023-05-08T08:06:44;12.43;;;5.00;;
70270;SDS011;57680;54.292;18.598;2023-05-08T08:09:09;14.73;;;5.70;;
70270;SDS011;57680;54.292;18.598;2023-05-08T08:11:35;12.43;;;6.00;;
70270;SDS011;57680;54.292;18.598;2023-05-08T08:14:00;11.00;;;4.27;;
70270;SDS011;57680;54.292;18.598;2023-05-08T08:16:25;9.93;;;4.93;;
70270;SDS011;57680;54.292;18.598;2023-05-08T08:18:51;11.10;;;5.23;;
70270;SDS011;57680;54.292;18.598;2023-05-08T08:21:16;11.97;;;5.83;;
70270;SDS011;57680;54.292;18.598;2023-05-08T08:23:42;11.53;;;4.47;;
70270;SDS011;57680;54.292;18.598;2023-05-08T08:26:07;9.57;;;3.80;;
70270;SDS011;57680;54.292;18.598;2023-05-08T08:28:33;10.13;;;4.45;;
70270;SDS011;57680;54.292;18.598;2023-05-08T08:30:58;7.43;;;2.70;;
70270;SDS011;57680;54.292;18.598;2023-05-08T08:33:25;7.77;;;3.10;;
70270;SDS011;57680;54.292;18.598;2023-05-08T08:35:52;6.13;;;2.80;;
70270;SDS011;57680;54.292;18.598;2023-05-08T08:38:17;5.97;;;2.33;;
70270;SDS011;57680;54.292;18.598;2023-05-08T08:40:43;6.35;;;2.85;;
70270;SDS011;57680;54.292;18.598;2023-05-08T08:43:08;8.17;;;2.80;;
70270;SDS011;57680;54.292;18.598;2023-05-08T08:45:34;6.70;;;3.20;;
70270;SDS011;57680;54.292;18.598;2023-05-08T08:48:01;6.55;;;2.70;;
70270;SDS011;57680;54.292;18.598;2023-05-08T08:50:29;6.53;;;2.88;;
70270;SDS011;57680;54.292;18.598;2023-05-08T08:53:09;9.00;;;3.00;;
70270;SDS011;57680;54.292;18.598;2023-05-08T08:55:43;8.55;;;2.60;;
70270;SDS011;57680;54.292;18.598;2023-05-08T08:58:16;8.10;;;2.87;;
70270;SDS011;57680;54.292;18.598;2023-05-08T09:00:45;9.40;;;3.22;;
70270;SDS011;57680;54.292;18.598;2023-05-08T09:03:11;10.57;;;3.40;;
70270;SDS011;57680;54.292;18.598;2023-05-08T09:05:38;9.32;;;3.70;;
70270;SDS011;57680;54.292;18.598;2023-05-08T09:08:04;7.30;;;3.10;;
70270;SDS011;57680;54.292;18.598;2023-05-08T09:10:30;8.00;;;3.17;;
70270;SDS011;57680;54.292;18.598;2023-05-08T09:12:55;7.77;;;2.90;;
70270;SDS011;57680;54.292;18.598;2023-05-08T09:15:21;7.63;;;3.03;;
70270;SDS011;57680;54.292;18.598;2023-05-08T09:17:46;8.33;;;3.30;;
70270;SDS011;57680;54.292;18.598;2023-05-08T09:20:12;5.80;;;2.80;;
70270;SDS011;57680;54.292;18.598;2023-05-08T09:22:38;6.38;;;3.20;;
70270;SDS011;57680;54.292;18.598;2023-05-08T09:25:05;10.23;;;3.30;;
70270;SDS011;57680;54.292;18.598;2023-05-08T09:27:31;6.43;;;2.90;;
70270;SDS011;57680;54.292;18.598;2023-05-08T09:30:00;6.63;;;3.00;;
70270;SDS011;57680;54.292;18.598;2023-05-08T09:32:26;8.90;;;3.13;;
70270;SDS011;57680;54.292;18.598;2023-05-08T09:34:55;8.18;;;2.80;;
70270;SDS011;57680;54.292;18.598;2023-05-08T09:37:21;6.50;;;2.72;;
70270;SDS011;57680;54.292;18.598;2023-05-08T09:39:46;8.30;;;3.07;;
70270;SDS011;57680;54.292;18.598;2023-05-08T09:42:12;5.78;;;2.80;;
70270;SDS011;57680;54.292;18.598;2023-05-08T10:00:12;7.57;;;2.63;;
70270;SDS011;57680;54.292;18.598;2023-05-08T10:09:42;8.23;;;2.90;;
70270;SDS011;57680;54.292;18.598;2023-05-08T10:12:21;5.50;;;2.10;;
70270;SDS011;57680;54.292;18.598;2023-05-08T10:14:47;6.57;;;2.38;;
70270;SDS011;57680;54.292;18.598;2023-05-08T10:17:12;6.53;;;2.60;;
70270;SDS011;57680;54.292;18.598;2023-05-08T10:19:42;6.38;;;2.63;;
70270;SDS011;57680;54.292;18.598;2023-05-08T10:22:12;6.60;;;2.50;;
70270;SDS011;57680;54.292;18.598;2023-05-08T10:24:40;5.97;;;2.88;;
70270;SDS011;57680;54.292;18.598;2023-05-08T10:27:13;7.10;;;2.80;;
70270;SDS011;57680;54.292;18.598;2023-05-08T10:32:08;8.13;;;2.80;;
70270;SDS011;57680;54.292;18.598;2023-05-08T10:34:34;6.32;;;2.30;;
70270;SDS011;57680;54.292;18.598;2023-05-08T10:37:04;5.20;;;2.63;;
70270;SDS011;57680;54.292;18.598;2023-05-08T10:39:33;7.68;;;2.70;;
70270;SDS011;57680;54.292;18.598;2023-05-08T10:42:00;5.95;;;2.50;;
70270;SDS011;57680;54.292;18.598;2023-05-08T10:44:26;9.70;;;3.22;;
70270;SDS011;57680;54.292;18.598;2023-05-08T10:52:28;7.07;;;2.42;;
70270;SDS011;57680;54.292;18.598;2023-05-08T10:57:21;8.07;;;2.50;;
70270;SDS011;57680;54.292;18.598;2023-05-08T10:59:47;5.27;;;2.50;;
70270;SDS011;57680;54.292;18.598;2023-05-08T11:02:12;12.27;;;2.80;;
70270;SDS011;57680;54.292;18.598;2023-05-08T11:04:38;6.93;;;2.65;;
70270;SDS011;57680;54.292;18.598;2023-05-08T11:07:04;6.57;;;2.67;;
70270;SDS011;57680;54.292;18.598;2023-05-08T11:09:44;5.77;;;2.50;;
70270;SDS011;57680;54.292;18.598;2023-05-08T11:12:19;6.10;;;2.70;;
70270;SDS011;57680;54.292;18.598;2023-05-08T11:15:00;5.10;;;2.28;;
70270;SDS011;57680;54.292;18.598;2023-05-08T11:17:27;6.95;;;2.50;;
70270;SDS011;57680;54.292;18.598;2023-05-08T11:19:54;5.87;;;2.50;;
70270;SDS011;57680;54.292;18.598;2023-05-08T11:24:48;6.83;;;2.70;;
70270;SDS011;57680;54.292;18.598;2023-05-08T11:27:14;7.55;;;2.60;;
70270;SDS011;57680;54.292;18.598;2023-05-08T11:29:40;6.07;;;2.58;;
70270;SDS011;57680;54.292;18.598;2023-05-08T11:32:06;6.30;;;2.85;;
70270;SDS011;57680;54.292;18.598;2023-05-08T11:37:10;6.38;;;2.67;;
70270;SDS011;57680;54.292;18.598;2023-05-08T11:39:41;5.75;;;2.70;;
70270;SDS011;57680;54.292;18.598;2023-05-08T11:47:31;6.28;;;2.60;;
70270;SDS011;57680;54.292;18.598;2023-05-08T11:50:01;9.10;;;2.70;;
70270;SDS011;57680;54.292;18.598;2023-05-08T11:52:27;8.43;;;2.73;;
70270;SDS011;57680;54.292;18.598;2023-05-08T11:54:53;6.40;;;2.72;;
70270;SDS011;57680;54.292;18.598;2023-05-08T11:57:18;7.17;;;2.80;;
70270;SDS011;57680;54.292;18.598;2023-05-08T11:59:48;5.80;;;2.60;;
70270;SDS011;57680;54.292;18.598;2023-05-08T12:02:13;6.50;;;2.60;;
70270;SDS011;57680;54.292;18.598;2023-05-08T12:04:43;6.03;;;2.77;;
70270;SDS011;57680;54.292;18.598;2023-05-08T12:07:09;6.63;;;2.95;;
70270;SDS011;57680;54.292;18.598;2023-05-08T12:09:34;6.47;;;2.67;;
70270;SDS011;57680;54.292;18.598;2023-05-08T12:12:00;7.18;;;3.10;;
70270;SDS011;57680;54.292;18.598;2023-05-08T12:14:25;7.63;;;3.00;;
70270;SDS011;57680;54.292;18.598;2023-05-08T12:16:51;7.87;;;2.57;;
70270;SDS011;57680;54.292;18.598;2023-05-08T12:19:16;7.03;;;3.30;;
70270;SDS011;57680;54.292;18.598;2023-05-08T12:21:47;6.87;;;2.87;;
70270;SDS011;57680;54.292;18.598;2023-05-08T12:24:14;6.70;;;3.13;;
70270;SDS011;57680;54.292;18.598;2023-05-08T12:26:40;6.65;;;2.80;;
70270;SDS011;57680;54.292;18.598;2023-05-08T12:29:06;7.93;;;3.03;;
70270;SDS011;57680;54.292;18.598;2023-05-08T12:31:33;6.43;;;2.70;;
70270;SDS011;57680;54.292;18.598;2023-05-08T12:34:00;5.95;;;2.78;;
70270;SDS011;57680;54.292;18.598;2023-05-08T12:36:27;7.53;;;2.92;;
70270;SDS011;57680;54.292;18.598;2023-05-08T12:39:07;7.67;;;2.67;;
70270;SDS011;57680;54.292;18.598;2023-05-08T12:41:33;8.10;;;3.20;;
70270;SDS011;57680;54.292;18.598;2023-05-08T12:43:58;10.15;;;3.00;;
70270;SDS011;57680;54.292;18.598;2023-05-08T12:46:23;7.00;;;2.93;;
70270;SDS011;57680;54.292;18.598;2023-05-08T12:48:49;8.60;;;3.17;;
70270;SDS011;57680;54.292;18.598;2023-05-08T12:51:14;6.17;;;2.70;;
70270;SDS011;57680;54.292;18.598;2023-05-08T12:53:40;8.07;;;2.85;;
70270;SDS011;57680;54.292;18.598;2023-05-08T12:56:05;6.23;;;2.60;;
70270;SDS011;57680;54.292;18.598;2023-05-08T12:58:32;8.63;;;2.80;;
70270;SDS011;57680;54.292;18.598;2023-05-08T13:01:11;5.78;;;2.72;;
70270;SDS011;57680;54.292;18.598;2023-05-08T13:03:36;6.65;;;2.50;;
70270;SDS011;57680;54.292;18.598;2023-05-08T13:06:02;8.80;;;2.77;;
70270;SDS011;57680;54.292;18.598;2023-05-08T13:08:31;8.07;;;2.50;;
70270;SDS011;57680;54.292;18.598;2023-05-08T13:11:01;6.47;;;2.58;;
70270;SDS011;57680;54.292;18.598;2023-05-08T13:13:29;6.33;;;2.47;;
70270;SDS011;57680;54.292;18.598;2023-05-08T13:15:56;8.05;;;2.55;;
70270;SDS011;57680;54.292;18.598;2023-05-08T13:18:25;6.30;;;2.72;;
70270;SDS011;57680;54.292;18.598;2023-05-08T13:20:51;6.47;;;2.95;;
70270;SDS011;57680;54.292;18.598;2023-05-08T13:23:17;6.23;;;2.73;;
70270;SDS011;57680;54.292;18.598;2023-05-08T13:25:42;6.63;;;2.92;;
70270;SDS011;57680;54.292;18.598;2023-05-08T13:28:08;6.07;;;2.40;;
70270;SDS011;57680;54.292;18.598;2023-05-08T13:30:34;6.65;;;2.63;;
70270;SDS011;57680;54.292;18.598;2023-05-08T13:33:00;7.20;;;2.30;;
70270;SDS011;57680;54.292;18.598;2023-05-08T13:35:26;6.43;;;2.45;;
70270;SDS011;57680;54.292;18.598;2023-05-08T13:37:52;7.05;;;2.70;;
70270;SDS011;57680;54.292;18.598;2023-05-08T13:40:18;6.43;;;2.33;;
70270;SDS011;57680;54.292;18.598;2023-05-08T13:42:43;7.07;;;2.10;;
70270;SDS011;57680;54.292;18.598;2023-05-08T13:45:09;6.93;;;2.50;;
70270;SDS011;57680;54.292;18.598;2023-05-08T13:47:35;6.78;;;2.45;;
70270;SDS011;57680;54.292;18.598;2023-05-08T13:50:01;6.30;;;2.40;;
70270;SDS011;57680;54.292;18.598;2023-05-08T13:52:27;5.78;;;2.40;;
70270;SDS011;57680;54.292;18.598;2023-05-08T13:54:52;6.37;;;2.40;;
70270;SDS011;57680;54.292;18.598;2023-05-08T13:57:18;6.30;;;2.38;;
70270;SDS011;57680;54.292;18.598;2023-05-08T13:59:43;6.70;;;2.50;;
70270;SDS011;57680;54.292;18.598;2023-05-08T14:02:08;5.30;;;2.20;;
70270;SDS011;57680;54.292;18.598;2023-05-08T14:04:34;6.00;;;2.70;;
70270;SDS011;57680;54.292;18.598;2023-05-08T14:06:59;5.83;;;2.43;;
70270;SDS011;57680;54.292;18.598;2023-05-08T14:09:25;5.53;;;2.20;;
70270;SDS011;57680;54.292;18.598;2023-05-08T14:11:50;6.70;;;2.45;;
70270;SDS011;57680;54.292;18.598;2023-05-08T14:14:16;7.80;;;2.30;;
70270;SDS011;57680;54.292;18.598;2023-05-08T14:16:41;7.50;;;2.50;;
70270;SDS011;57680;54.292;18.598;2023-05-08T14:19:07;5.17;;;2.20;;
70270;SDS011;57680;54.292;18.598;2023-05-08T14:21:32;5.47;;;2.37;;
70270;SDS011;57680;54.292;18.598;2023-05-08T14:23:58;7.20;;;2.50;;
70270;SDS011;57680;54.292;18.598;2023-05-08T14:26:23;7.63;;;2.33;;
70270;SDS011;57680;54.292;18.598;2023-05-08T14:28:48;5.15;;;2.10;;
70270;SDS011;57680;54.292;18.598;2023-05-08T14:31:14;7.63;;;2.40;;
70270;SDS011;57680;54.292;18.598;2023-05-08T14:33:39;8.50;;;2.30;;
70270;SDS011;57680;54.292;18.598;2023-05-08T14:36:04;7.83;;;3.53;;
70270;SDS011;57680;54.292;18.598;2023-05-08T14:38:30;5.40;;;2.40;;
70270;SDS011;57680;54.292;18.598;2023-05-08T14:40:55;6.73;;;2.37;;
70270;SDS011;57680;54.292;18.598;2023-05-08T14:43:21;7.37;;;2.10;;
70270;SDS011;57680;54.292;18.598;2023-05-08T14:45:47;7.90;;;2.17;;
70270;SDS011;57680;54.292;18.598;2023-05-08T14:48:13;6.10;;;2.30;;
70270;SDS011;57680;54.292;18.598;2023-05-08T14:50:39;6.45;;;2.30;;
70270;SDS011;57680;54.292;18.598;2023-05-08T14:53:04;6.33;;;2.63;;
70270;SDS011;57680;54.292;18.598;2023-05-08T14:55:30;7.22;;;2.40;;
70270;SDS011;57680;54.292;18.598;2023-05-08T14:57:55;6.50;;;2.50;;
70270;SDS011;57680;54.292;18.598;2023-05-08T15:00:21;8.70;;;2.40;;
70270;SDS011;57680;54.292;18.598;2023-05-08T15:02:46;6.03;;;2.20;;
70270;SDS011;57680;54.292;18.598;2023-05-08T15:05:12;4.93;;;2.17;;
70270;SDS011;57680;54.292;18.598;2023-05-08T15:07:37;6.50;;;2.00;;
70270;SDS011;57680;54.292;18.598;2023-05-08T15:10:03;5.97;;;2.33;;
70270;SDS011;57680;54.292;18.598;2023-05-08T15:12:29;7.10;;;2.35;;
70270;SDS011;57680;54.292;18.598;2023-05-08T15:14:55;5.33;;;2.27;;
70270;SDS011;57680;54.292;18.598;2023-05-08T15:17:20;6.20;;;2.47;;
70270;SDS011;57680;54.292;18.598;2023-05-08T15:19:45;6.50;;;2.30;;
70270;SDS011;57680;54.292;18.598;2023-05-08T15:22:11;6.77;;;2.37;;
70270;SDS011;57680;54.292;18.598;2023-05-08T15:24:37;5.97;;;2.10;;
70270;SDS011;57680;54.292;18.598;2023-05-08T15:27:03;7.43;;;2.60;;
70270;SDS011;57680;54.292;18.598;2023-05-08T15:29:28;5.68;;;2.40;;
70270;SDS011;57680;54.292;18.598;2023-05-08T15:31:53;7.07;;;2.40;;
70270;SDS011;57680;54.292;18.598;2023-05-08T15:34:19;6.67;;;2.20;;